Time;durP1;ratioP1;P1;durP2;ratioP2;P2;SDS_P1;SDS_P2;PMS_P1;PMS_P2;Temp;Humidity;BMP_temperature;BMP_pressure;BME280_temperature;BME280_humidity;BME280_pressure;Samples;Min_cycle;Max_cycle;Signal;HPM_P1;HPM_P2
2023/02/06 00:02:10;;;;;;;6.75;0.80;;;19.10;43.00;;;;;;5065843;28;20140;-48
2023/02/06 00:04:39;;;;;;;2.28;0.30;;;19.10;43.10;;;;;;5066509;28;20055;-48
2023/02/06 00:07:06;;;;;;;6.47;0.63;;;19.10;43.00;;;;;;5066881;28;20093;-49
2023/02/06 00:09:33;;;;;;;3.85;0.57;;;19.10;43.00;;;;;;5067094;28;20513;-48
2023/02/06 00:12:01;;;;;;;2.70;0.55;;;19.10;42.90;;;;;;5067205;28;20078;-49
2023/02/06 00:14:28;;;;;;;3.15;0.40;;;19.10;43.00;;;;;;5067004;28;20694;-45
2023/02/06 00:16:55;;;;;;;7.93;0.90;;;19.10;43.00;;;;;;5067202;28;20132;-48
2023/02/06 00:19:22;;;;;;;8.32;1.40;;;19.10;43.00;;;;;;5065267;28;20874;-49
2023/02/06 00:21:51;;;;;;;4.55;0.35;;;19.00;43.00;;;;;;5067146;28;20152;-46
2023/02/06 00:24:19;;;;;;;3.95;0.38;;;19.00;43.00;;;;;;5063538;28;20521;-47
2023/02/06 00:26:46;;;;;;;7.28;1.15;;;19.00;43.20;;;;;;5045875;28;20048;-50
2023/02/06 00:29:14;;;;;;;5.55;0.40;;;19.00;43.30;;;;;;5053663;28;20075;-49
2023/02/06 00:31:42;;;;;;;8.98;0.60;;;19.00;43.40;;;;;;5066716;28;20044;-51
2023/02/06 00:34:09;;;;;;;5.03;0.47;;;19.00;43.40;;;;;;5065006;28;20118;-49
2023/02/06 00:36:37;;;;;;;5.07;0.55;;;19.00;43.40;;;;;;5064641;28;20060;-47
2023/02/06 00:39:06;;;;;;;6.00;0.60;;;19.00;43.50;;;;;;5063544;28;20425;-46
2023/02/06 00:41:33;;;;;;;3.80;0.50;;;19.00;43.60;;;;;;5062532;28;20037;-48
2023/02/06 00:44:00;;;;;;;5.25;0.88;;;19.00;43.70;;;;;;5064670;28;20048;-49
2023/02/06 00:46:27;;;;;;;7.82;0.93;;;19.00;43.90;;;;;;5066588;28;20044;-51
2023/02/06 00:48:57;;;;;;;2.78;0.95;;;18.90;43.90;;;;;;5065728;28;20118;-48
2023/02/06 00:51:25;;;;;;;6.10;0.85;;;19.00;44.00;;;;;;5066765;28;20135;-47
2023/02/06 00:53:53;;;;;;;4.85;0.57;;;18.90;44.00;;;;;;5061296;28;20132;-47
2023/02/06 00:56:22;;;;;;;5.18;0.60;;;18.90;44.10;;;;;;5065864;28;20056;-47
2023/02/06 00:58:49;;;;;;;4.88;0.30;;;18.90;44.20;;;;;;5043347;28;20049;-46
2023/02/06 01:01:18;;;;;;;3.58;1.33;;;18.90;44.30;;;;;;5064814;28;20045;-50
2023/02/06 01:03:45;;;;;;;3.58;0.68;;;18.90;44.40;;;;;;5065744;28;20048;-49
2023/02/06 01:06:13;;;;;;;6.07;0.70;;;18.90;44.70;;;;;;5064068;28;20073;-46
2023/02/06 01:08:40;;;;;;;8.15;0.63;;;18.90;44.90;;;;;;5064055;28;20075;-46
2023/02/06 01:11:12;;;;;;;7.70;1.40;;;18.90;45.00;;;;;;5066382;28;20044;-48
2023/02/06 01:13:40;;;;;;;1.85;0.30;;;18.90;45.10;;;;;;5065223;28;20095;-49
2023/02/06 01:16:09;;;;;;;4.38;1.30;;;18.90;45.20;;;;;;5064959;28;20052;-47
2023/02/06 01:18:38;;;;;;;5.22;0.73;;;18.90;45.20;;;;;;5065281;28;20571;-49
2023/02/06 01:21:08;;;;;;;8.27;1.23;;;18.90;45.20;;;;;;5065681;28;20071;-48
2023/02/06 01:23:36;;;;;;;6.85;1.20;;;18.90;45.20;;;;;;5064092;28;20048;-46
2023/02/06 01:26:05;;;;;;;3.55;0.60;;;18.80;45.20;;;;;;5066024;28;20445;-50
2023/02/06 01:28:35;;;;;;;2.80;0.30;;;18.80;45.20;;;;;;5065696;28;20076;-47
2023/02/06 01:31:09;;;;;;;9.63;0.90;;;18.80;45.30;;;;;;5063729;28;20049;-51
2023/02/06 01:33:37;;;;;;;5.53;0.20;;;18.80;45.40;;;;;;5065891;28;20166;-49
2023/02/06 01:36:05;;;;;;;3.85;0.75;;;18.80;45.60;;;;;;5065099;28;20420;-46
2023/02/06 01:38:32;;;;;;;5.55;0.85;;;18.80;45.70;;;;;;5065806;28;20044;-49
2023/02/06 01:40:59;;;;;;;6.05;0.55;;;18.80;45.70;;;;;;5065764;28;20032;-47
2023/02/06 01:43:30;;;;;;;7.45;0.57;;;18.80;45.90;;;;;;5064065;28;21019;-49
2023/02/06 01:45:59;;;;;;;7.93;0.65;;;18.80;46.00;;;;;;5065383;28;20098;-46
2023/02/06 01:48:36;;;;;;;7.47;0.57;;;18.80;46.00;;;;;;5047383;28;20056;-49
2023/02/06 01:51:09;;;;;;;11.43;0.65;;;18.80;46.10;;;;;;5064780;28;20083;-50
2023/02/06 01:53:39;;;;;;;4.20;0.43;;;18.80;46.30;;;;;;5063168;28;20044;-46
2023/02/06 01:56:09;;;;;;;4.10;0.28;;;18.80;46.40;;;;;;5065568;28;20040;-46
2023/02/06 01:58:40;;;;;;;4.05;0.63;;;18.80;46.40;;;;;;5064069;28;20166;-47
2023/02/06 02:01:10;;;;;;;7.18;1.05;;;18.80;46.40;;;;;;5062716;28;20037;-46
2023/02/06 02:03:44;;;;;;;7.03;0.52;;;18.80;46.40;;;;;;5045195;28;20140;-48
2023/02/06 02:06:14;;;;;;;2.35;0.70;;;18.80;46.30;;;;;;5045388;28;20148;-49
2023/02/06 02:08:45;;;;;;;3.15;0.50;;;18.80;46.50;;;;;;5045451;28;20072;-49
2023/02/06 02:11:18;;;;;;;3.70;0.75;;;18.80;46.60;;;;;;5045440;28;20069;-47
2023/02/06 02:13:46;;;;;;;8.20;1.25;;;18.80;46.70;;;;;;5043374;28;20095;-49
2023/02/06 02:16:23;;;;;;;5.25;0.40;;;18.80;46.70;;;;;;5044941;28;20047;-46
2023/02/06 02:19:10;;;;;;;7.20;1.75;;;18.80;46.80;;;;;;5045030;28;20888;-46
2023/02/06 02:22:07;;;;;;;2.88;0.25;;;18.80;46.90;;;;;;5045100;28;20134;-50
2023/02/06 02:24:57;;;;;;;5.75;0.93;;;18.80;46.80;;;;;;5045069;28;20136;-47
2023/02/06 02:27:44;;;;;;;3.92;0.40;;;18.70;46.90;;;;;;5045675;28;20051;-45
2023/02/06 02:30:42;;;;;;;7.18;0.38;;;18.70;47.00;;;;;;5059418;28;20113;-46
2023/02/06 02:33:35;;;;;;;7.47;0.40;;;18.70;47.00;;;;;;5065097;28;20064;-48
2023/02/06 02:36:10;;;;;;;7.43;0.57;;;18.70;47.20;;;;;;5063308;28;20052;-49
2023/02/06 02:38:50;;;;;;;6.78;1.08;;;18.70;47.30;;;;;;5063869;28;20064;-46
2023/02/06 02:41:25;;;;;;;7.07;1.38;;;18.70;47.10;;;;;;5064929;28;20044;-46
2023/02/06 02:44:02;;;;;;;4.20;1.50;;;18.70;47.10;;;;;;5064738;28;20052;-45
2023/02/06 02:46:32;;;;;;;6.10;0.60;;;18.60;46.90;;;;;;5076053;28;20040;-49
2023/02/06 02:49:05;;;;;;;5.55;0.82;;;18.60;47.00;;;;;;5085252;28;20050;-48
2023/02/06 02:51:41;;;;;;;6.53;1.02;;;18.70;47.10;;;;;;5059973;28;20095;-46
2023/02/06 02:54:10;;;;;;;10.15;1.27;;;18.60;47.00;;;;;;5049227;28;20139;-46
2023/02/06 02:56:38;;;;;;;8.32;0.75;;;18.60;47.10;;;;;;5063958;28;20050;-45
2023/02/06 02:59:10;;;;;;;6.80;0.82;;;18.60;47.20;;;;;;5063671;28;20133;-47
2023/02/06 03:01:45;;;;;;;5.85;1.92;;;18.60;47.30;;;;;;5063683;28;20044;-46
2023/02/06 03:04:19;;;;;;;5.28;0.80;;;18.70;47.40;;;;;;5064367;28;20053;-46
2023/02/06 03:07:10;;;;;;;7.20;0.63;;;18.60;47.40;;;;;;5067339;28;20120;-50
2023/02/06 03:09:54;;;;;;;2.40;0.35;;;18.60;47.40;;;;;;5067364;28;20055;-50
2023/02/06 03:12:28;;;;;;;3.63;0.45;;;18.60;47.40;;;;;;5068388;28;20087;-45
2023/02/06 03:14:59;;;;;;;5.25;0.55;;;18.60;47.30;;;;;;5067008;28;20036;-47
2023/02/06 03:17:34;;;;;;;8.50;1.45;;;18.60;47.40;;;;;;5069159;28;20459;-45
2023/02/06 03:20:06;;;;;;;9.45;1.27;;;18.60;47.30;;;;;;5068255;28;20060;-45
2023/02/06 03:22:37;;;;;;;7.28;0.93;;;18.60;47.40;;;;;;5067057;28;20512;-46
2023/02/06 03:25:11;;;;;;;8.02;1.55;;;18.60;47.30;;;;;;5068112;28;20140;-48
2023/02/06 03:27:42;;;;;;;3.53;1.25;;;18.60;47.30;;;;;;5068040;28;20500;-47
2023/02/06 03:30:13;;;;;;;5.45;1.77;;;18.60;47.30;;;;;;5067914;28;20040;-48
2023/02/06 03:32:45;;;;;;;5.80;0.40;;;18.60;47.20;;;;;;5068229;28;20574;-47
2023/02/06 03:35:15;;;;;;;3.85;0.43;;;18.60;47.20;;;;;;5068081;28;20555;-47
2023/02/06 03:37:47;;;;;;;5.55;0.90;;;18.60;47.20;;;;;;5068058;28;21050;-46
2023/02/06 03:40:17;;;;;;;5.65;0.65;;;18.60;47.30;;;;;;5052291;28;20044;-45
2023/02/06 03:42:48;;;;;;;3.33;0.77;;;18.60;47.30;;;;;;5060832;28;20044;-46
2023/02/06 03:45:22;;;;;;;4.85;0.73;;;18.60;47.50;;;;;;5066659;28;20424;-46
2023/02/06 03:47:52;;;;;;;10.52;0.88;;;18.60;47.50;;;;;;5067653;28;20114;-46
2023/02/06 03:50:19;;;;;;;3.63;1.45;;;18.60;48.00;;;;;;5067513;28;20433;-47
2023/02/06 03:52:51;;;;;;;4.13;1.00;;;18.60;47.40;;;;;;5067643;28;20123;-45
2023/02/06 03:55:22;;;;;;;5.20;0.75;;;18.60;47.40;;;;;;5067076;28;20090;-46
2023/02/06 03:57:53;;;;;;;4.65;0.52;;;18.50;47.40;;;;;;5067472;28;20044;-46
2023/02/06 04:00:24;;;;;;;7.55;0.63;;;18.60;47.30;;;;;;5067813;28;20052;-47
2023/02/06 04:02:53;;;;;;;4.97;0.65;;;18.50;47.20;;;;;;5067842;28;20048;-51
2023/02/06 04:05:21;;;;;;;7.25;1.10;;;18.50;47.10;;;;;;5067579;28;20098;-46
2023/02/06 04:07:51;;;;;;;2.92;0.25;;;18.50;47.10;;;;;;5067895;28;20062;-47
2023/02/06 04:10:18;;;;;;;6.00;1.45;;;18.50;47.00;;;;;;5066317;28;20068;-46
2023/02/06 04:12:46;;;;;;;7.38;0.45;;;18.50;47.00;;;;;;5067404;28;20043;-47
2023/02/06 04:15:13;;;;;;;8.02;0.68;;;18.50;46.90;;;;;;5066102;28;20048;-46
2023/02/06 04:17:40;;;;;;;6.65;0.70;;;18.50;46.80;;;;;;5066800;28;20052;-47
2023/02/06 04:20:14;;;;;;;5.50;0.75;;;18.50;46.80;;;;;;5065154;28;20505;-48
2023/02/06 04:22:41;;;;;;;13.15;1.65;;;18.50;46.80;;;;;;5050886;28;20204;-47
2023/02/06 04:25:10;;;;;;;6.28;0.55;;;18.50;46.80;;;;;;5056397;28;20529;-46
2023/02/06 04:27:37;;;;;;;6.47;0.65;;;18.50;46.80;;;;;;5048080;28;20045;-51
2023/02/06 04:30:07;;;;;;;5.90;1.05;;;18.50;46.70;;;;;;5061269;28;20762;-50
2023/02/06 04:32:38;;;;;;;6.00;0.30;;;18.50;46.70;;;;;;5066766;28;20533;-50
2023/02/06 04:35:06;;;;;;;7.50;1.77;;;18.50;46.60;;;;;;5066470;28;20041;-46
2023/02/06 04:37:33;;;;;;;6.03;1.25;;;18.50;46.60;;;;;;5066783;28;20060;-45
2023/02/06 04:40:00;;;;;;;7.45;0.63;;;18.50;46.60;;;;;;5064830;28;20043;-47
2023/02/06 04:42:29;;;;;;;6.20;0.70;;;18.50;46.60;;;;;;5066365;28;20070;-46
2023/02/06 04:44:56;;;;;;;4.32;0.55;;;18.50;46.50;;;;;;5066359;28;20037;-50
2023/02/06 04:47:23;;;;;;;3.15;0.60;;;18.50;46.40;;;;;;5065053;28;20059;-50
2023/02/06 04:49:52;;;;;;;5.78;0.60;;;18.40;46.40;;;;;;5066465;28;20083;-47
2023/02/06 04:52:19;;;;;;;8.32;0.95;;;18.50;46.40;;;;;;5066166;28;20062;-49
2023/02/06 04:54:46;;;;;;;6.00;0.50;;;18.40;46.50;;;;;;5080076;28;20119;-47
2023/02/06 04:57:14;;;;;;;4.88;1.33;;;18.40;46.40;;;;;;5086637;28;20051;-50
2023/02/06 04:59:42;;;;;;;8.82;0.60;;;18.50;46.40;;;;;;5086642;28;20128;-45
2023/02/06 05:02:13;;;;;;;5.78;0.93;;;18.40;46.40;;;;;;5086322;28;20076;-46
2023/02/06 05:04:40;;;;;;;12.43;0.40;;;18.40;46.40;;;;;;5073332;28;20052;-46
2023/02/06 05:07:07;;;;;;;3.67;1.52;;;18.40;46.40;;;;;;5066007;28;20045;-45
2023/02/06 05:09:36;;;;;;;3.88;0.73;;;18.40;46.30;;;;;;5068142;28;20090;-48
2023/02/06 05:12:04;;;;;;;7.20;0.47;;;18.40;46.30;;;;;;5066016;28;20051;-48
2023/02/06 05:14:31;;;;;;;5.05;1.52;;;18.40;46.30;;;;;;5065746;28;20052;-47
2023/02/06 05:17:01;;;;;;;6.60;0.90;;;18.40;46.20;;;;;;5065780;28;20066;-46
2023/02/06 05:19:28;;;;;;;8.15;0.55;;;18.40;46.20;;;;;;5065898;28;20051;-48
2023/02/06 05:21:56;;;;;;;5.93;1.08;;;18.40;46.20;;;;;;5065089;28;20045;-47
2023/02/06 05:24:23;;;;;;;3.38;0.32;;;18.40;46.20;;;;;;5065657;28;20132;-48
2023/02/06 05:26:52;;;;;;;6.47;0.75;;;18.30;46.10;;;;;;5065687;28;20047;-47
2023/02/06 05:29:19;;;;;;;6.53;0.75;;;18.40;46.20;;;;;;5064830;28;20078;-47
2023/02/06 05:31:46;;;;;;;10.93;0.43;;;18.40;46.20;;;;;;5065747;28;20036;-45
2023/02/06 05:34:15;;;;;;;4.93;0.40;;;18.40;46.30;;;;;;5065794;28;20044;-45
2023/02/06 05:36:42;;;;;;;7.55;0.73;;;18.30;46.30;;;;;;5064315;28;20060;-46
2023/02/06 05:39:10;;;;;;;7.10;0.68;;;18.40;46.40;;;;;;5065553;28;20072;-48
2023/02/06 05:41:39;;;;;;;3.53;0.50;;;18.30;46.30;;;;;;5065164;28;20032;-50
2023/02/06 05:44:09;;;;;;;5.72;0.50;;;18.40;46.30;;;;;;5065263;28;20063;-47
2023/02/06 05:46:40;;;;;;;5.53;1.10;;;18.40;46.30;;;;;;5065386;28;20044;-46
2023/02/06 05:49:07;;;;;;;4.97;0.28;;;18.30;46.30;;;;;;5065192;28;20055;-46
2023/02/06 05:51:37;;;;;;;6.38;0.40;;;18.40;46.30;;;;;;5064569;28;20055;-48
2023/02/06 05:54:06;;;;;;;5.25;0.90;;;18.40;46.30;;;;;;5063658;28;20044;-47
2023/02/06 05:56:35;;;;;;;1.30;0.57;;;18.40;46.30;;;;;;5065551;28;20480;-47
2023/02/06 05:59:02;;;;;;;13.80;0.40;;;18.40;46.90;;;;;;5065134;28;20074;-45
2023/02/06 06:01:31;;;;;;;5.85;0.30;;;18.40;46.30;;;;;;5064974;28;20044;-45
2023/02/06 06:03:59;;;;;;;3.85;0.30;;;18.40;46.30;;;;;;5064255;28;20048;-47
2023/02/06 06:06:28;;;;;;;8.05;0.95;;;18.30;46.20;;;;;;5064079;28;20044;-47
2023/02/06 06:09:00;;;;;;;7.13;0.70;;;18.30;46.10;;;;;;5064871;28;20044;-49
2023/02/06 06:11:29;;;;;;;3.15;0.40;;;18.30;46.10;;;;;;5064551;28;20045;-44
2023/02/06 06:13:56;;;;;;;3.78;0.70;;;18.30;46.20;;;;;;5064981;28;20045;-48
2023/02/06 06:16:25;;;;;;;4.75;0.55;;;18.30;46.20;;;;;;5064825;28;20119;-47
2023/02/06 06:18:52;;;;;;;6.75;0.30;;;18.30;46.20;;;;;;5065024;28;20045;-45
2023/02/06 06:21:21;;;;;;;7.45;0.20;;;18.40;46.30;;;;;;5064415;28;20625;-46
2023/02/06 06:23:49;;;;;;;4.50;0.17;;;18.30;46.20;;;;;;5065108;28;20156;-47
2023/02/06 06:26:19;;;;;;;5.97;1.58;;;18.30;46.20;;;;;;5064862;28;20420;-46
2023/02/06 06:28:48;;;;;;;2.97;0.55;;;18.40;46.30;;;;;;5065195;28;20044;-47
2023/02/06 06:31:18;;;;;;;3.97;0.40;;;18.30;46.20;;;;;;5064873;28;20037;-45
2023/02/06 06:33:45;;;;;;;5.85;0.38;;;18.30;46.30;;;;;;5064932;28;20064;-48
2023/02/06 06:36:13;;;;;;;8.00;0.88;;;18.30;46.30;;;;;;5064217;28;20065;-50
2023/02/06 06:38:40;;;;;;;3.67;0.32;;;18.30;46.90;;;;;;5064818;28;20041;-45
2023/02/06 06:41:07;;;;;;;3.30;0.20;;;18.30;46.30;;;;;;5068690;28;20040;-49
2023/02/06 06:43:38;;;;;;;6.45;0.80;;;18.30;46.20;;;;;;5047287;28;20139;-47
2023/02/06 06:46:05;;;;;;;4.97;0.75;;;18.30;46.20;;;;;;5048617;28;20135;-46
2023/02/06 06:48:37;;;;;;;6.20;0.77;;;18.30;46.20;;;;;;5048630;28;20051;-45
2023/02/06 06:51:04;;;;;;;7.43;1.00;;;18.30;46.20;;;;;;5054279;28;20072;-45
2023/02/06 06:53:31;;;;;;;8.55;1.45;;;18.30;46.20;;;;;;5068422;28;20051;-46
2023/02/06 06:56:03;;;;;;;6.57;0.60;;;18.30;46.20;;;;;;5064817;28;20117;-45
2023/02/06 06:58:34;;;;;;;7.55;0.70;;;18.30;46.10;;;;;;5088740;28;20052;-49
2023/02/06 07:01:02;;;;;;;5.85;0.40;;;18.30;46.10;;;;;;5088775;28;20036;-46
2023/02/06 07:03:32;;;;;;;4.13;0.88;;;18.30;46.10;;;;;;5088375;28;20093;-45
2023/02/06 07:05:59;;;;;;;3.80;0.20;;;18.30;46.20;;;;;;5088387;28;20048;-47
2023/02/06 07:08:28;;;;;;;3.58;0.95;;;18.30;46.20;;;;;;5088668;28;20412;-46
2023/02/06 07:10:59;;;;;;;4.00;0.70;;;18.30;46.30;;;;;;5079546;28;20515;-49
2023/02/06 07:13:26;;;;;;;4.30;0.40;;;18.30;46.30;;;;;;5068116;28;20048;-50
2023/02/06 07:15:53;;;;;;;7.82;0.60;;;18.30;47.00;;;;;;5068047;28;20075;-48
2023/02/06 07:18:22;;;;;;;2.92;1.20;;;18.30;46.30;;;;;;5067761;28;20049;-46
2023/02/06 07:20:50;;;;;;;6.55;0.30;;;18.30;46.30;;;;;;5067718;28;20064;-46
2023/02/06 07:23:17;;;;;;;6.28;0.70;;;18.20;46.30;;;;;;5067785;28;20145;-48
2023/02/06 07:25:44;;;;;;;4.88;0.47;;;18.30;46.30;;;;;;5066380;28;20044;-46
2023/02/06 07:28:13;;;;;;;3.13;0.55;;;18.30;46.30;;;;;;5067722;28;20051;-46
2023/02/06 07:30:40;;;;;;;4.03;0.60;;;18.30;46.30;;;;;;5067409;28;20195;-47
2023/02/06 07:33:07;;;;;;;3.92;0.45;;;18.30;46.30;;;;;;5067889;28;20044;-46
2023/02/06 07:35:38;;;;;;;3.10;0.52;;;18.30;46.30;;;;;;5067506;28;20584;-48
2023/02/06 07:38:05;;;;;;;4.68;0.50;;;18.30;46.20;;;;;;5067634;28;20518;-48
2023/02/06 07:40:32;;;;;;;3.30;0.30;;;18.30;46.20;;;;;;5067186;28;20040;-47
2023/02/06 07:43:02;;;;;;;5.45;1.00;;;18.30;46.20;;;;;;5066962;28;20048;-45
2023/02/06 07:45:35;;;;;;;2.88;0.65;;;18.30;46.30;;;;;;5049596;28;20503;-48
2023/02/06 07:48:04;;;;;;;8.13;0.98;;;18.30;46.30;;;;;;5067133;28;20127;-46
2023/02/06 07:50:31;;;;;;;3.40;0.40;;;18.30;46.30;;;;;;5066399;28;20123;-48
2023/02/06 07:53:03;;;;;;;3.40;0.20;;;18.30;46.30;;;;;;5066542;28;20052;-45
2023/02/06 07:55:34;;;;;;;3.05;0.50;;;18.30;46.20;;;;;;5066911;28;20127;-45
2023/02/06 07:58:06;;;;;;;6.47;0.75;;;18.30;46.20;;;;;;5067103;28;20059;-47
2023/02/06 08:00:34;;;;;;;2.85;0.68;;;18.30;46.20;;;;;;5067234;28;20040;-48
2023/02/06 08:03:02;;;;;;;2.45;0.35;;;18.30;46.10;;;;;;5066897;28;20058;-48
2023/02/06 08:05:29;;;;;;;2.83;0.40;;;18.30;46.00;;;;;;5065410;28;20092;-46
2023/02/06 08:08:02;;;;;;;7.95;0.93;;;18.30;46.00;;;;;;5086871;28;20044;-48
2023/02/06 08:10:31;;;;;;;2.13;0.38;;;18.30;46.00;;;;;;5087515;28;20055;-48
2023/02/06 08:12:58;;;;;;;6.82;0.55;;;18.30;46.00;;;;;;5087110;28;20048;-51
2023/02/06 08:15:27;;;;;;;1.85;0.20;;;18.30;45.90;;;;;;5087008;28;20139;-46
2023/02/06 08:17:54;;;;;;;2.63;0.30;;;18.30;45.90;;;;;;5086703;28;20420;-47
2023/02/06 08:20:22;;;;;;;4.55;0.82;;;18.30;45.90;;;;;;5086676;28;20129;-49
2023/02/06 08:22:49;;;;;;;4.20;0.80;;;18.30;45.90;;;;;;5066430;28;20501;-51
2023/02/06 08:25:17;;;;;;;6.30;1.13;;;18.40;46.00;;;;;;5065019;28;20044;-51
2023/02/06 08:27:46;;;;;;;5.18;0.43;;;18.40;46.00;;;;;;5066588;28;20679;-46
2023/02/06 08:30:13;;;;;;;4.50;0.40;;;18.40;46.00;;;;;;5065968;28;20045;-44
2023/02/06 08:32:44;;;;;;;7.60;0.90;;;18.30;46.10;;;;;;5056609;28;20083;-49
2023/02/06 08:35:11;;;;;;;6.72;1.38;;;18.40;45.80;;;;;;5065407;28;20048;-44
2023/02/06 08:37:39;;;;;;;9.70;2.33;;;18.40;46.00;;;;;;5064208;28;20170;-42
2023/02/06 08:40:08;;;;;;;6.20;0.95;;;18.50;45.60;;;;;;5064674;28;20036;-45
2023/02/06 08:42:38;;;;;;;15.48;0.88;;;18.60;45.70;;;;;;5063916;28;20052;-43
2023/02/06 08:45:07;;;;;;;8.80;1.20;;;18.60;45.60;;;;;;5064355;28;20141;-40
2023/02/06 08:47:36;;;;;;;8.85;0.30;;;18.70;45.40;;;;;;5064221;28;20048;-46
2023/02/06 08:50:04;;;;;;;9.85;0.77;;;18.70;44.80;;;;;;5064369;28;20032;-44
2023/02/06 08:52:31;;;;;;;13.13;2.15;;;18.80;44.70;;;;;;5064009;28;20139;-41
2023/02/06 08:54:58;;;;;;;8.82;0.82;;;18.80;44.60;;;;;;5064375;28;20036;-41
2023/02/06 08:57:25;;;;;;;5.68;1.05;;;18.90;44.00;;;;;;5064460;28;20110;-42
2023/02/06 08:59:53;;;;;;;10.02;0.93;;;18.90;43.80;;;;;;5065518;28;20039;-44
2023/02/06 09:02:23;;;;;;;5.82;0.63;;;19.00;43.50;;;;;;5063979;28;20041;-42
2023/02/06 09:04:50;;;;;;;5.60;0.63;;;19.00;43.20;;;;;;5063678;28;20500;-42
2023/02/06 09:07:18;;;;;;;6.15;0.88;;;19.10;42.90;;;;;;5063879;28;20440;-43
2023/02/06 09:09:46;;;;;;;8.32;2.28;;;19.10;42.50;;;;;;5063718;28;20040;-43
2023/02/06 09:12:15;;;;;;;6.95;1.30;;;19.20;42.40;;;;;;5062868;28;20110;-45
2023/02/06 09:14:43;;;;;;;9.30;0.90;;;19.20;42.20;;;;;;5063298;28;20060;-42
2023/02/06 09:17:11;;;;;;;5.88;0.88;;;19.30;42.20;;;;;;5060650;28;20376;-45
2023/02/06 09:19:38;;;;;;;8.27;1.80;;;19.30;42.10;;;;;;5063469;28;20068;-45
2023/02/06 09:22:06;;;;;;;5.30;0.85;;;19.30;41.90;;;;;;5063061;28;20044;-42
2023/02/06 09:24:35;;;;;;;4.35;0.57;;;19.40;41.80;;;;;;5063781;28;20141;-46
2023/02/06 09:27:02;;;;;;;5.07;1.40;;;19.40;41.60;;;;;;5063411;28;20480;-44
2023/02/06 09:29:31;;;;;;;8.15;0.93;;;19.40;41.50;;;;;;5063259;28;20040;-42
2023/02/06 09:32:00;;;;;;;2.83;1.52;;;19.40;41.40;;;;;;5063864;28;20040;-43
2023/02/06 09:34:29;;;;;;;7.53;0.93;;;19.50;41.30;;;;;;5062361;28;20102;-51
2023/02/06 09:36:56;;;;;;;8.45;1.33;;;19.50;41.10;;;;;;5063718;28;20075;-50
2023/02/06 09:39:24;;;;;;;6.28;1.40;;;19.60;41.20;;;;;;5063819;28;20033;-48
2023/02/06 09:41:54;;;;;;;7.32;1.45;;;19.60;41.10;;;;;;5063757;28;20068;-44
2023/02/06 09:44:32;;;;;;;8.23;1.02;;;19.70;41.00;;;;;;5063169;28;20891;-50
2023/02/06 09:47:06;;;;;;;8.60;1.00;;;19.70;40.80;;;;;;5063244;28;20052;-54
2023/02/06 09:49:40;;;;;;;6.65;0.88;;;19.70;40.70;;;;;;5063546;28;20064;-54
2023/02/06 09:52:24;;;;;;;9.57;2.05;;;19.70;40.60;;;;;;5062965;28;20467;-54
2023/02/06 09:54:59;;;;;;;6.22;1.30;;;19.80;40.60;;;;;;5063131;28;20857;-52
2023/02/06 09:57:40;;;;;;;6.97;0.60;;;19.80;40.70;;;;;;5061893;28;20040;-50
2023/02/06 10:00:21;;;;;;;5.25;1.15;;;19.80;40.80;;;;;;5058971;28;20118;-53
2023/02/06 10:03:00;;;;;;;7.53;1.25;;;19.80;40.90;;;;;;5063535;28;20036;-50
2023/02/06 10:05:40;;;;;;;5.65;1.23;;;19.90;40.90;;;;;;5063356;28;20044;-53
2023/02/06 10:08:16;;;;;;;10.48;0.93;;;19.90;40.70;;;;;;5063643;28;20050;-54
2023/02/06 10:10:45;;;;;;;;;;;19.90;40.50;;;;;;5063793;28;20116;-49
2023/02/06 10:13:19;;;;;;;6.25;0.75;;;19.90;41.10;;;;;;5062695;28;19934;-51
2023/02/06 10:15:48;;;;;;;5.18;0.80;;;19.80;40.50;;;;;;5063082;28;20048;-49
2023/02/06 10:18:19;;;;;;;8.88;2.60;;;19.90;40.30;;;;;;5061920;28;20040;-49
2023/02/06 10:20:52;;;;;;;8.95;1.20;;;20.00;40.20;;;;;;5063105;28;20044;-51
2023/02/06 10:23:28;;;;;;;5.78;0.60;;;20.00;40.00;;;;;;5058962;28;20087;-49
2023/02/06 10:26:05;;;;;;;7.47;1.13;;;20.00;40.00;;;;;;5062937;28;20076;-55
2023/02/06 10:28:34;;;;;;;5.57;1.55;;;20.00;40.00;;;;;;5063012;28;20079;-60
2023/02/06 10:31:15;;;;;;;4.50;0.68;;;20.10;40.20;;;;;;5062881;28;20032;-51
2023/02/06 10:33:52;;;;;;;8.10;1.33;;;20.10;40.20;;;;;;5059211;28;20545;-55
2023/02/06 10:36:35;;;;;;;6.40;0.70;;;20.20;40.40;;;;;;5062196;28;20136;-52
2023/02/06 10:39:30;;;;;;;8.77;2.33;;;20.20;40.20;;;;;;5062788;28;20523;-56
2023/02/06 10:42:08;;;;;;;8.85;1.20;;;20.30;40.10;;;;;;5057902;28;20056;-53
2023/02/06 10:44:42;;;;;;;8.05;0.68;;;20.30;40.20;;;;;;5062457;28;20048;-52
2023/02/06 10:47:19;;;;;;;6.60;1.27;;;20.30;40.20;;;;;;5062735;28;20048;-50
2023/02/06 10:49:50;;;;;;;5.25;1.35;;;20.40;40.00;;;;;;5061422;28;20031;-58
2023/02/06 10:52:25;;;;;;;11.18;1.27;;;20.40;40.70;;;;;;5062621;28;20052;-49
2023/02/06 10:54:56;;;;;;;16.98;1.48;;;20.40;39.80;;;;;;5062288;28;20149;-51
2023/02/06 10:57:27;;;;;;;6.20;0.82;;;20.50;39.70;;;;;;5060403;28;20608;-48
2023/02/06 10:59:59;;;;;;;13.88;0.98;;;20.50;40.70;;;;;;5049065;28;20045;-51
2023/02/06 11:02:32;;;;;;;4.38;0.75;;;20.50;41.20;;;;;;5065386;28;20123;-47
2023/02/06 11:05:04;;;;;;;8.52;0.80;;;20.60;41.30;;;;;;5084378;28;20543;-49
2023/02/06 11:07:38;;;;;;;5.40;0.40;;;20.60;41.20;;;;;;5082564;28;20080;-47
2023/02/06 11:10:07;;;;;;;5.15;1.05;;;20.60;41.00;;;;;;5082528;28;20048;-46
2023/02/06 11:12:37;;;;;;;5.25;0.57;;;20.70;40.90;;;;;;5070900;28;20049;-49
2023/02/06 11:15:15;;;;;;;9.20;1.67;;;20.70;40.70;;;;;;5063194;28;20068;-45
2023/02/06 11:17:45;;;;;;;8.20;1.17;;;20.80;40.60;;;;;;5063581;28;20131;-47
2023/02/06 11:20:20;;;;;;;9.23;0.70;;;20.80;40.30;;;;;;5063293;28;20054;-47
2023/02/06 11:22:49;;;;;;;6.72;0.85;;;20.90;40.20;;;;;;5044291;28;20466;-46
2023/02/06 11:25:21;;;;;;;3.55;0.60;;;20.90;39.90;;;;;;5044746;28;20398;-48
2023/02/06 11:27:48;;;;;;;5.57;0.60;;;21.00;39.60;;;;;;5047763;28;20076;-48
2023/02/06 11:30:33;;;;;;;7.07;0.88;;;21.10;39.60;;;;;;5063320;28;20052;-49
2023/02/06 11:33:04;;;;;;;3.83;0.43;;;21.10;39.50;;;;;;5068045;28;20044;-48
2023/02/06 11:35:38;;;;;;;6.88;0.47;;;21.10;39.40;;;;;;5067411;28;20087;-50
2023/02/06 11:38:14;;;;;;;5.00;1.05;;;21.10;39.20;;;;;;5067684;28;20049;-48
2023/02/06 11:40:44;;;;;;;6.47;0.68;;;21.10;39.10;;;;;;5067320;28;20049;-46
2023/02/06 11:43:20;;;;;;;8.82;0.57;;;21.10;39.10;;;;;;5067217;28;20572;-47
2023/02/06 11:45:50;;;;;;;3.42;0.40;;;21.10;38.90;;;;;;5067165;28;20048;-48
2023/02/06 11:48:33;;;;;;;6.85;0.47;;;21.10;39.00;;;;;;5055198;28;20041;-47
2023/02/06 11:51:02;;;;;;;9.18;0.75;;;21.10;39.00;;;;;;5053062;28;20645;-50
2023/02/06 11:53:31;;;;;;;2.03;0.35;;;21.10;39.00;;;;;;5066965;28;20063;-47
2023/02/06 11:56:02;;;;;;;2.53;0.20;;;21.10;38.90;;;;;;5067247;28;20127;-47
2023/02/06 11:58:31;;;;;;;3.90;0.30;;;21.10;38.90;;;;;;5067189;28;20055;-50
2023/02/06 12:01:03;;;;;;;3.08;0.25;;;21.10;38.90;;;;;;5067362;28;20055;-48
2023/02/06 12:03:34;;;;;;;2.60;0.50;;;21.20;39.00;;;;;;5065572;28;20425;-50
2023/02/06 12:06:09;;;;;;;2.95;0.98;;;21.20;38.90;;;;;;5067004;28;20143;-46
2023/02/06 12:08:48;;;;;;;6.25;0.57;;;21.20;38.90;;;;;;5066563;28;20052;-44
2023/02/06 12:11:23;;;;;;;2.20;0.77;;;21.30;38.90;;;;;;5066970;28;20566;-47
2023/02/06 12:13:56;;;;;;;2.88;0.40;;;21.30;38.90;;;;;;5066968;28;20124;-50
2023/02/06 12:16:24;;;;;;;1.02;0.28;;;21.30;38.90;;;;;;5066985;28;20127;-45
2023/02/06 12:18:53;;;;;;;0.95;0.20;;;21.30;38.90;;;;;;5065528;28;20115;-45
2023/02/06 12:21:28;;;;;;;5.93;0.50;;;21.30;38.80;;;;;;5066743;28;20044;-46
2023/02/06 12:24:02;;;;;;;0.93;0.28;;;21.40;38.80;;;;;;5066771;28;20076;-45
2023/02/06 12:26:33;;;;;;;2.40;0.30;;;21.40;38.80;;;;;;5066919;28;20147;-48
2023/02/06 12:29:02;;;;;;;4.57;1.27;;;21.40;38.70;;;;;;5066604;28;20047;-46
2023/02/06 12:31:38;;;;;;;5.97;0.60;;;21.50;38.70;;;;;;5066805;28;20071;-48
2023/02/06 12:34:13;;;;;;;6.25;0.57;;;21.50;38.60;;;;;;5066947;28;20160;-49
2023/02/06 12:36:53;;;;;;;3.88;1.00;;;21.50;38.50;;;;;;5049580;28;20053;-45
2023/02/06 12:39:22;;;;;;;2.35;0.32;;;21.50;38.40;;;;;;5046729;28;20037;-47
2023/02/06 12:42:16;;;;;;;1.95;0.57;;;21.50;38.30;;;;;;5052128;28;20040;-47
2023/02/06 12:44:48;;;;;;;4.10;0.88;;;21.50;38.20;;;;;;5066205;28;20878;-48
2023/02/06 12:47:22;;;;;;;0.70;0.20;;;21.50;38.20;;;;;;5066550;28;20048;-47
2023/02/06 12:49:59;;;;;;;5.78;0.95;;;21.50;38.20;;;;;;5066537;28;20044;-50
2023/02/06 12:52:31;;;;;;;3.50;0.43;;;21.50;38.20;;;;;;5065619;28;20078;-46
2023/02/06 12:55:08;;;;;;;3.75;0.52;;;21.50;38.10;;;;;;5065916;28;20512;-48
2023/02/06 12:57:38;;;;;;;4.15;0.70;;;21.50;38.10;;;;;;5066282;28;20594;-50
2023/02/06 13:00:34;;;;;;;1.92;0.30;;;21.40;38.00;;;;;;5065826;28;20044;-49
2023/02/06 13:03:14;;;;;;;3.78;0.65;;;21.50;38.00;;;;;;5067481;28;20090;-49
2023/02/06 13:05:45;;;;;;;2.90;0.20;;;21.50;38.10;;;;;;5065766;28;20040;-46